createdAt,value
2023-01-11T00:00:41.023Z,100324.28
2023-01-11T00:03:10.392Z,100321.56
2023-01-11T00:05:39.187Z,100348.19
2023-01-11T00:08:08.100Z,100323.59
2023-01-11T00:10:36.218Z,100317.81
2023-01-11T00:13:04.255Z,100310.69
2023-01-11T00:15:32.261Z,100309.84
2023-01-11T00:18:00.197Z,100293.72
2023-01-11T00:20:29.432Z,100290.38
2023-01-11T00:22:57.474Z,100290.38
2023-01-11T00:25:25.827Z,100276.31
2023-01-11T00:27:54.967Z,100279.84
2023-01-11T00:30:23.903Z,100279.50
2023-01-11T00:32:56.610Z,100275.41
2023-01-11T00:35:24.573Z,100283.75
2023-01-11T00:37:55.202Z,100268.66
2023-01-11T00:40:24.106Z,100275.81
2023-01-11T00:43:09.480Z,100267.00
2023-01-11T00:45:55.138Z,100267.50
2023-01-11T00:48:23.045Z,100263.06
2023-01-11T00:50:54.838Z,100259.00
2023-01-11T00:53:24.123Z,100261.56
2023-01-11T00:55:51.971Z,100251.00
2023-01-11T00:58:19.854Z,100249.50
2023-01-11T01:00:47.656Z,100254.41
2023-01-11T01:03:15.538Z,100264.81
2023-01-11T01:05:43.456Z,100250.88
2023-01-11T01:08:11.617Z,100258.84
2023-01-11T01:10:40.800Z,100258.16
2023-01-11T01:13:28.881Z,100247.88
2023-01-11T01:15:58.765Z,100257.81
2023-01-11T01:18:26.700Z,100272.44
2023-01-11T01:20:54.640Z,100274.63
2023-01-11T01:23:22.694Z,100263.44
2023-01-11T01:25:51.996Z,100270.72
2023-01-11T01:28:22.113Z,100264.63
2023-01-11T01:30:52.552Z,100269.06
2023-01-11T01:33:20.514Z,100269.41
2023-01-11T01:35:48.491Z,100261.06
2023-01-11T01:38:16.496Z,100258.88
2023-01-11T01:40:45.894Z,100258.38
2023-01-11T01:43:17.297Z,100262.59
2023-01-11T01:45:45.481Z,100249.00
2023-01-11T01:48:19.052Z,100256.81
2023-01-11T01:50:48.349Z,100254.78
2023-01-11T01:53:21.133Z,100281.28
2023-01-11T01:55:53.247Z,100246.47
2023-01-11T01:58:30.191Z,100251.22
2023-01-11T02:01:18.285Z,100256.31
2023-01-11T02:03:46.477Z,100244.59
2023-01-11T02:06:14.650Z,100259.84
2023-01-11T02:08:47.939Z,100253.06
2023-01-11T02:11:30.705Z,100269.00
2023-01-11T02:14:04.331Z,100237.06
2023-01-11T02:16:32.336Z,100249.59
2023-01-11T02:19:01.981Z,100233.81
2023-01-11T02:21:41.491Z,100239.81
2023-01-11T02:24:36.550Z,100252.72
2023-01-11T02:27:34.689Z,100242.13
2023-01-11T02:30:14.840Z,100240.28
2023-01-11T02:32:55.408Z,100247.22
2023-01-11T02:35:33.218Z,100253.19
2023-01-11T02:38:07.048Z,100247.22
2023-01-11T02:40:43.343Z,100248.91
2023-01-11T02:43:36.046Z,100250.94
2023-01-11T02:46:11.814Z,100256.38
2023-01-11T02:48:47.428Z,100259.44
2023-01-11T02:51:20.845Z,100258.78
2023-01-11T02:53:55.608Z,100266.09
2023-01-11T02:56:26.813Z,100261.31
2023-01-11T02:58:57.956Z,100260.63
2023-01-11T03:01:27.307Z,100263.53
2023-01-11T03:03:56.064Z,100255.69
2023-01-11T03:06:27.993Z,100263.16
2023-01-11T03:09:15.139Z,100256.81
2023-01-11T03:12:15.187Z,100253.41
2023-01-11T03:14:52.504Z,100271.91
2023-01-11T03:17:36.223Z,100275.63
2023-01-11T03:20:10.983Z,100273.75
2023-01-11T03:22:47.391Z,100269.03
2023-01-11T03:25:21.168Z,100269.81
2023-01-11T03:27:54.606Z,100284.56
2023-01-11T03:30:31.533Z,100274.28
2023-01-11T03:33:05.144Z,100280.94
2023-01-11T03:35:38.915Z,100285.44
2023-01-11T03:38:11.550Z,100292.16
2023-01-11T03:40:43.381Z,100295.69
2023-01-11T03:43:13.705Z,100317.81
2023-01-11T03:45:49.525Z,100309.22
2023-01-11T03:48:23.080Z,100314.28
2023-01-11T03:50:52.254Z,100323.31
2023-01-11T03:53:24.032Z,100323.75
2023-01-11T03:55:56.989Z,100323.31
2023-01-11T03:58:26.907Z,100318.84
2023-01-11T04:00:56.260Z,100316.78
2023-01-11T04:03:27.237Z,100327.50
2023-01-11T04:06:00.367Z,100317.25
2023-01-11T04:08:28.684Z,100321.34
2023-01-11T04:10:56.684Z,100330.69
2023-01-11T04:13:24.579Z,100323.44
2023-01-11T04:15:54.010Z,100333.41
2023-01-11T04:18:21.989Z,100345.78
2023-01-11T04:20:51.403Z,100349.59
2023-01-11T04:25:48.236Z,100353.72
2023-01-11T04:28:16.315Z,100373.59
2023-01-11T04:30:44.182Z,100365.44
2023-01-11T04:33:13.283Z,100371.72
2023-01-11T04:35:41.915Z,100373.09
2023-01-11T04:38:11.184Z,100371.16
2023-01-11T04:40:39.228Z,100364.59
2023-01-11T04:43:06.235Z,100376.00
2023-01-11T04:45:34.352Z,100370.22
2023-01-11T04:48:02.303Z,100371.75
2023-01-11T04:50:30.425Z,100386.34
2023-01-11T04:52:59.934Z,100393.84
2023-01-11T04:55:29.226Z,100390.13
2023-01-11T04:57:57.256Z,100411.38
2023-01-11T05:00:25.769Z,100398.78
2023-01-11T05:02:53.651Z,100411.38
2023-01-11T05:05:21.571Z,100401.31
2023-01-11T05:07:49.968Z,100418.16
2023-01-11T05:10:20.787Z,100422.78
2023-01-11T05:12:50.418Z,100408.50
2023-01-11T05:15:18.488Z,100412.19
2023-01-11T05:17:46.598Z,100411.53
2023-01-11T05:20:14.656Z,100413.88
2023-01-11T05:22:42.761Z,100427.47
2023-01-11T05:25:10.917Z,100429.13
2023-01-11T05:27:39.138Z,100418.41
2023-01-11T05:30:10.247Z,100423.19
2023-01-11T05:32:38.160Z,100426.75
2023-01-11T05:35:10.020Z,100428.28
2023-01-11T05:37:38.096Z,100424.53
2023-01-11T05:40:07.899Z,100426.84
2023-01-11T05:42:35.965Z,100435.06
2023-01-11T05:45:21.778Z,100433.88
2023-01-11T05:47:53.910Z,100438.59
2023-01-11T05:50:22.067Z,100441.53
2023-01-11T05:52:50.134Z,100436.25
2023-01-11T05:55:18.483Z,100439.31
2023-01-11T05:57:46.839Z,100442.19
2023-01-11T06:00:16.167Z,100446.97
2023-01-11T06:02:44.148Z,100450.88
2023-01-11T06:05:13.684Z,100456.81
2023-01-11T06:07:41.721Z,100450.22
2023-01-11T06:10:11.255Z,100455.97
2023-01-11T06:12:39.217Z,100467.41
2023-01-11T06:15:08.372Z,100472.84
2023-01-11T06:17:36.305Z,100479.66
2023-01-11T06:20:04.821Z,100485.44
2023-01-11T06:22:34.454Z,100485.91
2023-01-11T06:25:02.455Z,100485.81
2023-01-11T06:27:30.717Z,100504.88
2023-01-11T06:29:58.700Z,100494.00
2023-01-11T06:32:26.833Z,100476.31
2023-01-11T06:34:54.949Z,100484.44
2023-01-11T06:37:23.281Z,100492.63
2023-01-11T06:39:53.477Z,100489.88
2023-01-11T06:42:21.577Z,100488.38
2023-01-11T06:44:49.777Z,100500.97
2023-01-11T06:47:17.691Z,100505.22
2023-01-11T06:49:45.740Z,100503.16
2023-01-11T06:52:13.787Z,100499.41
2023-01-11T06:54:41.755Z,100507.75
2023-01-11T06:57:11.197Z,100500.44
2023-01-11T06:59:39.716Z,100511.81
2023-01-11T07:02:09.584Z,100503.34
2023-01-11T07:04:37.542Z,100514.34
2023-01-11T07:07:05.657Z,100520.34
2023-01-11T07:09:33.792Z,100509.63
2023-01-11T07:12:02.041Z,100526.16
2023-01-11T07:14:31.948Z,100539.22
2023-01-11T07:16:59.936Z,100543.66
2023-01-11T07:19:28.104Z,100530.41
2023-01-11T07:21:56.146Z,100539.59
2023-01-11T07:24:24.519Z,100542.13
2023-01-11T07:26:53.445Z,100541.47
2023-01-11T07:29:21.451Z,100536.34
2023-01-11T07:31:51.109Z,100541.09
2023-01-11T07:34:19.234Z,100553.69
2023-01-11T07:36:47.330Z,100563.06
2023-01-11T07:39:15.332Z,100567.13
2023-01-11T07:42:00.771Z,100582.31
2023-01-11T07:44:28.745Z,100592.84
2023-01-11T07:46:58.301Z,100596.06
2023-01-11T07:49:26.868Z,100587.41
2023-01-11T07:51:54.937Z,100588.56
2023-01-11T07:54:24.631Z,100598.47
2023-01-11T07:56:53.015Z,100597.09
2023-01-11T07:59:21.041Z,100603.03
2023-01-11T08:01:49.161Z,100608.28
2023-01-11T08:04:18.690Z,100607.81
2023-01-11T08:06:46.715Z,100596.94
2023-01-11T08:09:14.679Z,100603.22
2023-01-11T08:12:00.129Z,100613.09
2023-01-11T08:14:40.733Z,100618.53
2023-01-11T08:17:09.205Z,100623.97
2023-01-11T08:19:38.938Z,100627.00
2023-01-11T08:22:07.128Z,100615.13
2023-01-11T08:24:35.680Z,100623.25
2023-01-11T08:27:04.490Z,100621.72
2023-01-11T08:29:32.868Z,100625.31
2023-01-11T08:32:01.083Z,100619.88
2023-01-11T08:34:29.751Z,100622.88
2023-01-11T08:37:02.342Z,100625.28
2023-01-11T08:39:31.537Z,100630.88
2023-01-11T08:41:59.893Z,100631.06
2023-01-11T08:44:35.250Z,100637.50
2023-01-11T08:47:04.186Z,100640.91
2023-01-11T08:49:32.461Z,100649.75
2023-01-11T08:52:01.798Z,100651.28
2023-01-11T08:54:29.961Z,100660.69
2023-01-11T08:56:57.896Z,100662.25
2023-01-11T08:59:25.952Z,100657.25
2023-01-11T09:01:54.369Z,100665.41
2023-01-11T09:04:25.417Z,100673.72
2023-01-11T09:06:53.918Z,100677.63
2023-01-11T09:09:25.472Z,100678.47
2023-01-11T09:11:57.134Z,100683.34
2023-01-11T09:14:27.283Z,100682.50
2023-01-11T09:16:56.287Z,100680.63
2023-01-11T09:19:24.397Z,100682.31
2023-01-11T09:21:53.309Z,100689.41
2023-01-11T09:24:21.491Z,100690.16
2023-01-11T09:26:51.192Z,100688.75
2023-01-11T09:29:19.981Z,100688.28
2023-01-11T09:31:48.350Z,100686.91
2023-01-11T09:34:16.953Z,100690.38
2023-01-11T09:36:47.349Z,100697.19
2023-01-11T09:39:18.835Z,100701.94
2023-01-11T09:42:12.779Z,100706.91
2023-01-11T09:44:50.901Z,100698.31
2023-01-11T09:47:29.109Z,100709.91
2023-01-11T09:50:01.701Z,100711.16
2023-01-11T09:52:37.069Z,100715.53
2023-01-11T09:55:07.733Z,100715.34
2023-01-11T09:58:07.939Z,100713.88
2023-01-11T10:00:51.877Z,100711.66
2023-01-11T10:03:54.403Z,100717.91
2023-01-11T10:06:29.090Z,100711.44
2023-01-11T10:18:27.915Z,100709.59
2023-01-11T10:18:45.535Z,100708.56
2023-01-11T10:21:15.964Z,100715.28
2023-01-11T10:23:50.752Z,100712.41
2023-01-11T10:26:28.817Z,100720.78
2023-01-11T10:29:38.722Z,100720.59
2023-01-11T10:32:34.667Z,100712.81
2023-01-11T10:35:41.349Z,100716.06
2023-01-11T10:38:42.735Z,100711.34
2023-01-11T10:41:26.208Z,100727.31
2023-01-11T10:44:05.340Z,100725.25
2023-01-11T10:46:39.918Z,100724.38
2023-01-11T10:49:26.975Z,100732.69
2023-01-11T10:52:04.673Z,100723.84
2023-01-11T10:54:37.383Z,100732.97
2023-01-11T10:57:19.186Z,100724.34
2023-01-11T11:00:15.453Z,100731.78
2023-01-11T11:03:08.341Z,100727.59
2023-01-11T11:05:49.085Z,100723.22
2023-01-11T11:08:26.588Z,100737.81
2023-01-11T11:11:00.377Z,100730.59
2023-01-11T11:13:43.607Z,100728.19
2023-01-11T11:16:23.001Z,100737.22
2023-01-11T11:18:53.047Z,100738.16
2023-01-11T11:21:24.852Z,100754.75
2023-01-11T11:23:58.191Z,100742.78
2023-01-11T11:26:30.523Z,100740.13
2023-01-11T11:29:08.052Z,100742.28
2023-01-11T11:31:38.500Z,100743.41
2023-01-11T11:34:09.581Z,100737.22
2023-01-11T11:36:51.504Z,100747.47
2023-01-11T11:39:22.373Z,100769.03
2023-01-11T11:41:52.717Z,100748.69
2023-01-11T11:44:24.925Z,100758.22
2023-01-11T11:47:03.723Z,100749.53
2023-01-11T11:49:33.567Z,100750.75
2023-01-11T11:52:06.597Z,100752.78
2023-01-11T11:54:41.019Z,100743.59
2023-01-11T11:57:16.898Z,100746.38
2023-01-11T11:59:50.475Z,100752.03
2023-01-11T12:02:23.689Z,100756.84
2023-01-11T12:04:53.136Z,100752.72
2023-01-11T12:07:25.393Z,100753.91
2023-01-11T12:10:01.055Z,100752.94
2023-01-11T12:12:29.872Z,100758.16
2023-01-11T12:15:10.709Z,100761.69
2023-01-11T12:17:38.795Z,100751.66
2023-01-11T12:20:34.293Z,100743.94
2023-01-11T12:23:19.150Z,100764.59
2023-01-11T12:26:06.949Z,100746.38
2023-01-11T12:29:01.214Z,100749.03
2023-01-11T12:31:39.217Z,100750.88
2023-01-11T12:34:21.158Z,100751.22
2023-01-11T12:36:58.568Z,100743.97
2023-01-11T12:39:37.403Z,100747.59
2023-01-11T12:42:28.851Z,100746.16
2023-01-11T12:45:08.391Z,100761.56
2023-01-11T12:47:59.162Z,100768.25
2023-01-11T12:50:31.828Z,100748.81
2023-01-11T12:53:14.639Z,100749.38
2023-01-11T12:55:58.751Z,100762.63
2023-01-11T12:58:36.283Z,100759.53
2023-01-11T13:01:30.219Z,100760.38
2023-01-11T13:04:23.274Z,100755.72
2023-01-11T13:07:04.253Z,100768.34
2023-01-11T13:09:41.943Z,100769.78
2023-01-11T13:12:15.932Z,100755.13
2023-01-11T13:14:58.436Z,100767.88
2023-01-11T13:17:34.926Z,100771.72
2023-01-11T13:20:30.768Z,100757.97
2023-01-11T13:23:03.776Z,100765.66
2023-01-11T13:25:36.658Z,100764.63
2023-01-11T13:28:23.940Z,100773.78
2023-01-11T13:30:53.132Z,100774.09
2023-01-11T13:33:24.692Z,100752.63
2023-01-11T13:35:58.366Z,100760.84
2023-01-11T13:38:37.475Z,100772.66
2023-01-11T13:41:18.047Z,100765.88
2023-01-11T13:43:56.276Z,100763.31
2023-01-11T13:46:42.875Z,100758.78
2023-01-11T13:49:20.520Z,100764.56
2023-01-11T13:51:53.232Z,100782.06
2023-01-11T13:54:26.548Z,100766.41
2023-01-11T13:57:01.443Z,100766.22
2023-01-11T13:59:35.443Z,100762.31
2023-01-11T14:02:12.652Z,100774.19
2023-01-11T14:04:46.920Z,100786.22
2023-01-11T14:07:25.501Z,100778.28
2023-01-11T14:10:21.695Z,100770.00
2023-01-11T14:13:05.079Z,100777.72
2023-01-11T14:15:41.505Z,100774.81
2023-01-11T14:18:19.285Z,100766.97
2023-01-11T14:20:55.374Z,100761.84
2023-01-11T14:23:33.411Z,100791.31
2023-01-11T14:26:26.754Z,100765.59
2023-01-11T14:29:13.698Z,100769.22
2023-01-11T14:31:59.984Z,100747.63
2023-01-11T14:34:46.925Z,100752.16
2023-01-11T14:37:37.450Z,100758.69
2023-01-11T14:40:44.448Z,100756.22
2023-01-11T14:43:39.957Z,100757.50
2023-01-11T14:46:43.756Z,100764.94
2023-01-11T14:49:32.734Z,100760.78
2023-01-11T14:52:05.491Z,100770.53
2023-01-11T14:54:38.696Z,100775.50
2023-01-11T14:57:06.980Z,100785.56
2023-01-11T14:59:38.370Z,100785.19
2023-01-11T15:02:26.243Z,100778.53
2023-01-11T15:05:38.752Z,100774.16
2023-01-11T15:08:20.565Z,100775.03
2023-01-11T15:10:53.851Z,100770.75
2023-01-11T15:13:24.977Z,100762.75
2023-01-11T15:16:22.751Z,100771.88
2023-01-11T15:18:51.000Z,100766.69
2023-01-11T15:21:25.221Z,100765.47
2023-01-11T15:23:56.658Z,100772.22
2023-01-11T15:26:27.382Z,100764.72
2023-01-11T15:28:57.415Z,100772.72
2023-01-11T15:31:39.317Z,100762.94
2023-01-11T15:34:28.291Z,100769.81
2023-01-11T15:37:32.823Z,100756.72
2023-01-11T15:40:05.949Z,100766.19
2023-01-11T15:43:14.129Z,100757.00
2023-01-11T15:46:29.388Z,100758.03
2023-01-11T15:49:55.912Z,100759.13
2023-01-11T15:53:04.015Z,100752.22
2023-01-11T15:56:11.875Z,100746.88
2023-01-11T15:59:23.188Z,100752.69
2023-01-11T16:02:34.171Z,100780.22
2023-01-11T16:05:14.119Z,100769.09
2023-01-11T16:07:48.607Z,100773.25
2023-01-11T16:10:48.403Z,100779.00
2023-01-11T16:13:31.111Z,100770.13
2023-01-11T16:16:12.062Z,100771.06
2023-01-11T16:18:44.321Z,100758.91
2023-01-11T16:21:18.771Z,100773.09
2023-01-11T16:23:48.325Z,100774.78
2023-01-11T16:26:19.523Z,100771.84
2023-01-11T16:28:50.113Z,100778.59
2023-01-11T16:31:18.842Z,100785.28
2023-01-11T16:33:49.583Z,100781.91
2023-01-11T16:36:20.991Z,100772.09
2023-01-11T16:38:57.885Z,100780.44
2023-01-11T16:41:30.377Z,100775.91
2023-01-11T16:44:03.804Z,100761.53
2023-01-11T16:47:06.802Z,100765.88
2023-01-11T16:49:35.795Z,100784.72
2023-01-11T16:52:38.924Z,100772.72
2023-01-11T16:55:21.848Z,100786.44
2023-01-11T16:57:54.152Z,100778.13
2023-01-11T17:00:36.109Z,100780.59
2023-01-11T17:03:19.854Z,100789.31
2023-01-11T17:05:56.364Z,100781.72
2023-01-11T17:08:26.494Z,100787.91
2023-01-11T17:10:58.880Z,100783.56
2023-01-11T17:13:53.180Z,100791.56
2023-01-11T17:16:23.112Z,100774.09
2023-01-11T17:18:51.082Z,100780.53
2023-01-11T17:21:23.365Z,100766.59
2023-01-11T17:23:54.152Z,100775.94
2023-01-11T17:26:25.629Z,100757.91
2023-01-11T17:28:57.342Z,100760.06
2023-01-11T17:31:28.323Z,100753.94
2023-01-11T17:34:05.346Z,100766.34
2023-01-11T17:36:34.115Z,100757.03
2023-01-11T17:39:04.385Z,100758.75
2023-01-11T17:41:51.900Z,100769.34
2023-01-11T17:44:40.398Z,100751.69
2023-01-11T17:47:12.248Z,100770.22
2023-01-11T17:49:41.440Z,100762.63
2023-01-11T17:52:12.014Z,100766.50
2023-01-11T17:54:40.208Z,100760.69
2023-01-11T17:57:11.217Z,100753.06
2023-01-11T17:59:39.369Z,100739.66
2023-01-11T18:02:13.256Z,100740.53
2023-01-11T18:04:41.480Z,100741.38
2023-01-11T18:07:16.667Z,100739.34
2023-01-11T18:09:46.797Z,100748.28
2023-01-11T18:12:21.555Z,100728.63
2023-01-11T18:14:53.833Z,100709.13
2023-01-11T18:17:39.028Z,100722.38
2023-01-11T18:20:36.304Z,100709.03
2023-01-11T18:23:18.701Z,100717.88
2023-01-11T18:25:46.915Z,100709.91
2023-01-11T18:28:27.575Z,100699.13
2023-01-11T18:30:59.252Z,100692.84
2023-01-11T18:33:30.445Z,100685.00
2023-01-11T18:36:01.715Z,100690.03
2023-01-11T18:38:32.311Z,100676.44
2023-01-11T18:41:25.128Z,100675.69
2023-01-11T18:43:55.463Z,100661.75
2023-01-11T18:46:23.567Z,100647.78
2023-01-11T18:48:52.211Z,100649.81
2023-01-11T18:51:30.235Z,100641.72
2023-01-11T18:53:58.649Z,100639.09
2023-01-11T18:56:26.694Z,100627.31
2023-01-11T18:58:55.906Z,100616.00
2023-01-11T19:01:24.068Z,100613.28
2023-01-11T19:03:52.376Z,100622.41
2023-01-11T19:06:22.763Z,100608.00
2023-01-11T19:08:50.787Z,100608.31
2023-01-11T19:11:19.022Z,100611.97
2023-01-11T19:13:47.370Z,100606.22
2023-01-11T19:16:16.728Z,100594.38
2023-01-11T19:18:45.861Z,100587.13
2023-01-11T19:21:14.388Z,100582.88
2023-01-11T19:23:42.979Z,100592.03
2023-01-11T19:26:11.019Z,100586.81
2023-01-11T19:28:38.868Z,100579.59
2023-01-11T19:31:07.857Z,100575.44
2023-01-11T19:33:37.201Z,100564.22
2023-01-11T19:36:06.962Z,100563.25
2023-01-11T19:38:35.162Z,100556.81
2023-01-11T19:41:05.557Z,100559.53
2023-01-11T19:43:34.473Z,100553.94
2023-01-11T19:46:05.655Z,100550.88
2023-01-11T19:48:34.501Z,100561.06
2023-01-11T19:51:05.469Z,100549.81
2023-01-11T19:53:33.866Z,100545.69
2023-01-11T19:56:02.238Z,100572.13
2023-01-11T19:58:30.545Z,100578.56
2023-01-11T20:00:58.573Z,100577.47
2023-01-11T20:03:26.754Z,100571.94
2023-01-11T20:05:54.781Z,100564.31
2023-01-11T20:08:24.351Z,100551.63
2023-01-11T20:10:52.435Z,100542.50
2023-01-11T20:13:20.447Z,100554.34
2023-01-11T20:15:48.569Z,100541.31
2023-01-11T20:18:16.565Z,100542.72
2023-01-11T20:20:44.681Z,100554.50
2023-01-11T20:23:12.844Z,100537.44
2023-01-11T20:25:42.145Z,100529.47
2023-01-11T20:28:10.234Z,100530.72
2023-01-11T20:30:41.109Z,100533.56
2023-01-11T20:33:10.192Z,100529.88
2023-01-11T20:35:38.552Z,100506.78
2023-01-11T20:38:06.684Z,100510.50
2023-01-11T20:40:34.873Z,100507.56
2023-01-11T20:43:04.643Z,100510.13
2023-01-11T20:45:33.547Z,100498.66
2023-01-11T20:48:01.870Z,100502.59
2023-01-11T20:50:30.425Z,100485.47
2023-01-11T20:53:00.286Z,100516.69
2023-01-11T20:55:28.716Z,100500.59
2023-01-11T20:57:58.117Z,100495.38
2023-01-11T21:00:29.579Z,100481.00
2023-01-11T21:02:57.732Z,100507.31
2023-01-11T21:05:25.865Z,100501.59
2023-01-11T21:07:53.946Z,100514.13
2023-01-11T21:10:22.115Z,100506.25
2023-01-11T21:12:51.980Z,100506.06
2023-01-11T21:15:20.222Z,100484.53
2023-01-11T21:17:50.110Z,100463.63
2023-01-11T21:20:18.787Z,100484.44
2023-01-11T21:22:46.837Z,100482.81
2023-01-11T21:25:17.444Z,100477.59
2023-01-11T21:27:45.749Z,100458.69
2023-01-11T21:30:14.977Z,100480.88
2023-01-11T21:32:44.366Z,100459.38
2023-01-11T21:35:14.763Z,100463.94
2023-01-11T21:37:43.351Z,100469.97
2023-01-11T21:40:16.361Z,100469.91
2023-01-11T21:42:45.954Z,100467.41
2023-01-11T21:45:15.961Z,100459.84
2023-01-11T21:47:44.888Z,100462.78
2023-01-11T21:50:14.293Z,100463.44
2023-01-11T21:52:42.585Z,100462.31
2023-01-11T21:55:11.403Z,100471.41
2023-01-11T21:57:39.496Z,100475.66
2023-01-11T22:00:11.024Z,100481.72
2023-01-11T22:02:43.035Z,100466.28
2023-01-11T22:05:12.439Z,100465.47
2023-01-11T22:07:43.559Z,100468.09
2023-01-11T22:10:12.429Z,100479.06
2023-01-11T22:12:40.727Z,100469.59
2023-01-11T22:15:10.448Z,100504.53
2023-01-11T22:17:38.790Z,100513.66
2023-01-11T22:20:07.953Z,100492.94
2023-01-11T22:22:35.847Z,100489.66
2023-01-11T22:25:06.177Z,100519.56
2023-01-11T22:27:34.143Z,100476.28
2023-01-11T22:30:02.174Z,100490.53
2023-01-11T22:32:31.363Z,100489.97
2023-01-11T22:34:59.430Z,100470.78
2023-01-11T22:37:29.233Z,100496.72
2023-01-11T22:40:00.118Z,100492.44
2023-01-11T22:42:30.705Z,100484.81
2023-01-11T22:44:58.663Z,100481.66
2023-01-11T22:47:26.575Z,100482.69
2023-01-11T22:49:55.901Z,100479.03
2023-01-11T22:52:23.947Z,100498.25
2023-01-11T22:54:52.026Z,100505.53
2023-01-11T22:57:19.977Z,100509.19
2023-01-11T22:59:49.212Z,100512.34
2023-01-11T23:02:18.244Z,100522.88
2023-01-11T23:04:46.169Z,100520.41
2023-01-11T23:07:13.978Z,100525.53
2023-01-11T23:09:42.110Z,100527.16
2023-01-11T23:12:27.659Z,100515.28
2023-01-11T23:14:57.007Z,100517.94
2023-01-11T23:17:25.634Z,100512.13
2023-01-11T23:19:53.647Z,100520.25
2023-01-11T23:22:21.714Z,100523.09
2023-01-11T23:24:49.583Z,100531.22
2023-01-11T23:27:17.563Z,100522.22
2023-01-11T23:29:45.719Z,100528.81
2023-01-11T23:32:14.963Z,100523.03
2023-01-11T23:34:43.067Z,100514.72
2023-01-11T23:37:10.997Z,100520.59
2023-01-11T23:39:39.149Z,100516.16
2023-01-11T23:42:24.684Z,100521.13
2023-01-11T23:44:52.565Z,100531.75
2023-01-11T23:47:22.153Z,100506.72
2023-01-11T23:49:50.877Z,100536.97
2023-01-11T23:52:19.846Z,100532.88
2023-01-11T23:54:47.963Z,100520.16
2023-01-11T23:57:17.202Z,100509.84
2023-01-11T23:59:45.507Z,100511.69
